createdAt,value
2024-04-04T00:01:52.884Z,98029.67
2024-04-04T00:04:26.447Z,98036.76
2024-04-04T00:06:59.502Z,98035.20
2024-04-04T00:09:31.594Z,98035.09
2024-04-04T00:12:03.705Z,98033.94
2024-04-04T00:14:36.157Z,98044.19
2024-04-04T00:17:08.591Z,98041.34
2024-04-04T00:19:40.691Z,98045.75
2024-04-04T00:22:12.990Z,98050.13
2024-04-04T00:24:45.466Z,98041.58
2024-04-04T00:27:17.555Z,98058.91
2024-04-04T00:29:50.386Z,98054.30
2024-04-04T00:32:22.655Z,98049.06
2024-04-04T00:34:54.900Z,98059.21
2024-04-04T00:37:27.350Z,98060.16
2024-04-04T00:39:59.445Z,98053.03
2024-04-04T00:42:33.329Z,98059.42
2024-04-04T00:45:06.202Z,98068.09
2024-04-04T00:47:38.343Z,98079.59
2024-04-04T00:50:10.553Z,98069.96
2024-04-04T00:52:43.613Z,98076.44
2024-04-04T00:55:15.724Z,98069.89
2024-04-04T00:57:49.054Z,98078.44
2024-04-04T01:00:23.416Z,98070.50
2024-04-04T01:02:55.703Z,98092.55
2024-04-04T01:05:27.956Z,98089.19
2024-04-04T01:08:00.482Z,98100.48
2024-04-04T01:10:32.778Z,98100.08
2024-04-04T01:13:05.156Z,98108.02
2024-04-04T01:15:37.223Z,98102.24
2024-04-04T01:18:11.184Z,98111.98
2024-04-04T01:20:43.552Z,98105.28
2024-04-04T01:23:16.074Z,98112.61
2024-04-04T01:25:48.626Z,98114.17
2024-04-04T01:28:21.582Z,98106.73
2024-04-04T01:30:53.882Z,98115.84
2024-04-04T01:33:26.175Z,98109.77
2024-04-04T01:35:58.420Z,98117.60
2024-04-04T01:38:30.884Z,98119.92
2024-04-04T01:41:03.235Z,98130.97
2024-04-04T01:43:35.669Z,98123.24
2024-04-04T01:46:07.994Z,98130.46
2024-04-04T01:48:40.523Z,98127.09
2024-04-04T01:51:12.998Z,98148.78
2024-04-04T01:53:45.128Z,98144.75
2024-04-04T01:56:18.129Z,98152.98
2024-04-04T01:58:50.745Z,98166.75
2024-04-04T02:01:22.911Z,98166.66
2024-04-04T02:03:55.912Z,98176.80
2024-04-04T02:06:28.296Z,98171.17
2024-04-04T02:09:01.122Z,98176.20
2024-04-04T02:11:33.775Z,98182.05
2024-04-04T02:14:06.787Z,98184.56
2024-04-04T02:16:41.308Z,98178.30
2024-04-04T02:19:13.901Z,98180.91
2024-04-04T02:21:46.928Z,98191.25
2024-04-04T02:24:19.074Z,98189.78
2024-04-04T02:26:51.467Z,98189.78
2024-04-04T02:29:23.920Z,98186.98
2024-04-04T02:31:56.238Z,98200.31
2024-04-04T02:34:28.860Z,98211.88
2024-04-04T02:37:01.295Z,98221.94
2024-04-04T02:39:34.348Z,98217.77
2024-04-04T02:42:06.836Z,98226.66
2024-04-04T02:44:39.113Z,98228.83
2024-04-04T02:47:11.592Z,98227.98
2024-04-04T02:49:43.741Z,98226.13
2024-04-04T02:52:16.402Z,98234.80
2024-04-04T02:54:48.635Z,98239.89
2024-04-04T02:57:21.658Z,98243.98
2024-04-04T02:59:54.394Z,98249.02
2024-04-04T03:02:27.400Z,98252.91
2024-04-04T03:05:00.158Z,98249.36
2024-04-04T03:07:34.385Z,98256.34
2024-04-04T03:10:08.235Z,98260.55
2024-04-04T03:12:40.607Z,98259.61
2024-04-04T03:15:14.143Z,98272.34
2024-04-04T03:17:47.118Z,98258.28
2024-04-04T03:20:20.735Z,98260.89
2024-04-04T03:22:55.504Z,98270.39
2024-04-04T03:25:27.796Z,98271.78
2024-04-04T03:27:59.933Z,98271.70
2024-04-04T03:30:32.677Z,98277.81
2024-04-04T03:33:05.224Z,98284.42
2024-04-04T03:35:41.133Z,98285.05
2024-04-04T03:38:13.692Z,98287.37
2024-04-04T03:40:55.958Z,98288.42
2024-04-04T03:43:28.231Z,98290.45
2024-04-04T03:46:06.055Z,98297.25
2024-04-04T03:48:38.973Z,98303.00
2024-04-04T03:51:12.932Z,98296.64
2024-04-04T03:53:46.012Z,98301.77
2024-04-04T03:56:18.463Z,98312.64
2024-04-04T03:58:51.659Z,98317.67
2024-04-04T04:01:24.824Z,98311.50
2024-04-04T04:03:58.005Z,98314.12
2024-04-04T04:06:31.670Z,98319.11
2024-04-04T04:09:09.013Z,98321.09
2024-04-04T04:11:42.279Z,98325.67
2024-04-04T04:14:16.570Z,98320.77
2024-04-04T04:16:48.807Z,98324.85
2024-04-04T04:19:21.127Z,98334.79
2024-04-04T04:21:54.096Z,98340.00
2024-04-04T04:24:26.893Z,98332.88
2024-04-04T04:27:01.617Z,98341.47
2024-04-04T04:29:35.225Z,98334.55
2024-04-04T04:32:08.834Z,98333.64
2024-04-04T04:34:43.385Z,98336.78
2024-04-04T04:37:16.137Z,98338.97
2024-04-04T04:39:51.573Z,98343.72
2024-04-04T04:42:24.391Z,98339.83
2024-04-04T04:44:59.169Z,98334.31
2024-04-04T04:47:34.620Z,98348.75
2024-04-04T04:50:08.753Z,98344.70
2024-04-04T04:52:43.044Z,98356.13
2024-04-04T04:55:15.994Z,98359.37
2024-04-04T04:57:48.315Z,98362.32
2024-04-04T05:00:22.495Z,98363.77
2024-04-04T05:02:55.514Z,98370.05
2024-04-04T05:05:28.377Z,98369.85
2024-04-04T05:08:03.766Z,98370.67
2024-04-04T05:10:39.992Z,98378.42
2024-04-04T05:13:14.586Z,98368.05
2024-04-04T05:15:55.226Z,98380.95
2024-04-04T05:18:33.104Z,98384.17
2024-04-04T05:21:09.194Z,98384.44
2024-04-04T05:23:41.897Z,98390.92
2024-04-04T05:26:14.251Z,98399.98
2024-04-04T05:28:48.831Z,98400.58
2024-04-04T05:31:21.077Z,98411.06
2024-04-04T05:33:55.211Z,98415.65
2024-04-04T05:36:28.540Z,98420.94
2024-04-04T05:39:02.597Z,98433.67
2024-04-04T05:41:35.395Z,98442.53
2024-04-04T05:44:10.838Z,98451.37
2024-04-04T05:46:44.577Z,98450.90
2024-04-04T05:49:17.776Z,98458.02
2024-04-04T05:51:50.166Z,98455.78
2024-04-04T05:54:23.913Z,98475.86
2024-04-04T05:56:57.613Z,98469.73
2024-04-04T05:59:31.531Z,98484.77
2024-04-04T06:02:04.973Z,98483.52
2024-04-04T06:04:46.495Z,98487.50
2024-04-04T06:07:14.793Z,98491.20
2024-04-04T06:09:48.920Z,98493.58
2024-04-04T06:12:22.597Z,98494.13
2024-04-04T06:14:56.344Z,98497.58
2024-04-04T06:17:30.136Z,98505.31
2024-04-04T06:20:07.830Z,98508.11
2024-04-04T06:22:40.363Z,98507.25
2024-04-04T06:25:14.443Z,98515.95
2024-04-04T06:27:48.677Z,98525.14
2024-04-04T06:30:22.896Z,98520.33
2024-04-04T06:32:56.815Z,98529.44
2024-04-04T06:35:29.861Z,98537.95
2024-04-04T06:38:03.144Z,98542.77
2024-04-04T06:40:42.728Z,98546.86
2024-04-04T06:43:16.464Z,98558.81
2024-04-04T06:45:50.496Z,98555.89
2024-04-04T06:48:24.004Z,98557.65
2024-04-04T06:50:57.451Z,98554.71
2024-04-04T06:53:31.675Z,98568.36
2024-04-04T06:56:06.297Z,98568.41
2024-04-04T06:58:39.218Z,98575.66
2024-04-04T07:01:11.755Z,98580.23
2024-04-04T07:03:44.646Z,98578.50
2024-04-04T07:06:18.064Z,98578.19
2024-04-04T07:08:53.207Z,98588.11
2024-04-04T07:11:27.250Z,98590.70
2024-04-04T07:14:04.242Z,98605.87
2024-04-04T07:16:41.937Z,98605.47
2024-04-04T07:19:16.238Z,98600.27
2024-04-04T07:21:51.366Z,98606.87
2024-04-04T07:24:24.949Z,98605.73
2024-04-04T07:26:58.243Z,98608.88
2024-04-04T07:29:32.686Z,98617.64
2024-04-04T07:32:05.831Z,98620.41
2024-04-04T07:34:39.348Z,98629.72
2024-04-04T07:37:12.663Z,98624.94
2024-04-04T07:39:46.019Z,98620.02
2024-04-04T07:42:20.190Z,98619.62
2024-04-04T07:44:55.910Z,98625.84
2024-04-04T07:47:29.987Z,98621.17
2024-04-04T07:50:05.134Z,98623.98
2024-04-04T07:52:39.964Z,98630.20
2024-04-04T07:55:17.419Z,98632.59
2024-04-04T07:57:52.125Z,98634.41
2024-04-04T08:00:26.165Z,98638.11
2024-04-04T08:03:00.474Z,98637.66
2024-04-04T08:05:35.006Z,98646.63
2024-04-04T08:08:09.109Z,98642.44
2024-04-04T08:10:43.164Z,98649.38
2024-04-04T08:13:17.466Z,98651.41
2024-04-04T08:15:54.056Z,98661.09
2024-04-04T08:18:29.573Z,98675.80
2024-04-04T08:21:02.876Z,98670.42
2024-04-04T08:23:37.978Z,98671.86
2024-04-04T08:26:11.754Z,98682.75
2024-04-04T08:28:45.031Z,98686.94
2024-04-04T08:31:18.096Z,98687.65
2024-04-04T08:33:52.967Z,98688.13
2024-04-04T08:36:26.691Z,98696.96
2024-04-04T08:38:59.690Z,98701.63
2024-04-04T08:41:33.604Z,98699.97
2024-04-04T08:44:09.917Z,98704.52
2024-04-04T08:46:43.906Z,98706.23
2024-04-04T08:49:18.114Z,98714.34
2024-04-04T08:51:52.763Z,98727.63
2024-04-04T08:54:28.802Z,98726.30
2024-04-04T08:57:04.523Z,98726.08
2024-04-04T08:59:40.303Z,98726.61
2024-04-04T09:02:13.246Z,98723.73
2024-04-04T09:04:47.530Z,98730.19
2024-04-04T09:07:20.469Z,98730.88
2024-04-04T09:09:54.256Z,98739.15
2024-04-04T09:12:28.264Z,98741.95
2024-04-04T09:15:04.177Z,98742.17
2024-04-04T09:17:37.957Z,98752.14
2024-04-04T09:20:12.396Z,98758.67
2024-04-04T09:22:46.474Z,98749.06
2024-04-04T09:25:20.886Z,98755.45
2024-04-04T09:27:54.566Z,98756.73
2024-04-04T09:30:31.116Z,98760.22
2024-04-04T09:33:04.756Z,98759.42
2024-04-04T09:35:37.693Z,98762.87
2024-04-04T09:38:11.905Z,98768.97
2024-04-04T09:40:46.211Z,98772.23
2024-04-04T09:43:18.801Z,98786.45
2024-04-04T09:45:52.513Z,98787.71
2024-04-04T09:48:35.604Z,98791.70
2024-04-04T09:51:03.701Z,98791.39
2024-04-04T09:53:39.716Z,98788.94
2024-04-04T09:56:14.268Z,98783.22
2024-04-04T09:58:49.796Z,98802.84
2024-04-04T10:01:28.013Z,98798.07
2024-04-04T10:04:04.530Z,98804.45
2024-04-04T10:06:40.002Z,98826.84
2024-04-04T10:09:17.924Z,98837.16
2024-04-04T10:11:55.337Z,98853.75
2024-04-04T10:14:29.457Z,98847.08
2024-04-04T10:17:05.608Z,98852.91
2024-04-04T10:19:39.984Z,98863.79
2024-04-04T10:22:20.582Z,98864.09
2024-04-04T10:24:56.749Z,98867.07
2024-04-04T10:27:34.824Z,98870.33
2024-04-04T10:30:10.623Z,98874.56
2024-04-04T10:32:44.819Z,98875.02
2024-04-04T10:35:19.108Z,98880.33
2024-04-04T10:37:54.780Z,98882.36
2024-04-04T10:40:29.207Z,98890.53
2024-04-04T10:43:02.374Z,98885.70
2024-04-04T10:45:37.004Z,98888.45
2024-04-04T10:48:10.749Z,98888.43
2024-04-04T10:50:46.102Z,98899.38
2024-04-04T10:53:20.945Z,98906.66
2024-04-04T10:55:55.379Z,98907.02
2024-04-04T10:58:30.930Z,98911.31
2024-04-04T11:01:05.351Z,98909.83
2024-04-04T11:03:41.568Z,98916.98
2024-04-04T11:06:17.116Z,98930.95
2024-04-04T11:08:51.640Z,98936.20
2024-04-04T11:11:26.415Z,98929.80
2024-04-04T11:14:01.476Z,98929.48
2024-04-04T11:16:34.395Z,98940.72
2024-04-04T11:19:09.873Z,98946.98
2024-04-04T11:21:43.615Z,98954.59
2024-04-04T11:24:18.423Z,98958.20
2024-04-04T11:26:54.461Z,98954.95
2024-04-04T11:29:27.386Z,98963.50
2024-04-04T11:32:01.921Z,98968.02
2024-04-04T11:34:36.761Z,98976.65
2024-04-04T11:37:12.938Z,98983.68
2024-04-04T11:39:47.732Z,98984.52
2024-04-04T11:42:23.163Z,98982.30
2024-04-04T11:44:57.860Z,98986.20
2024-04-04T11:47:31.143Z,98995.91
2024-04-04T11:50:05.496Z,98999.38
2024-04-04T11:52:38.627Z,99002.46
2024-04-04T11:55:13.357Z,99021.10
2024-04-04T11:57:46.541Z,99019.77
2024-04-04T12:00:20.415Z,99031.10
2024-04-04T12:02:54.846Z,99031.91
2024-04-04T12:05:27.912Z,99038.22
2024-04-04T12:08:00.774Z,99048.75
2024-04-04T12:10:33.622Z,99050.43
2024-04-04T12:13:06.699Z,99055.22
2024-04-04T12:15:44.577Z,99055.48
2024-04-04T12:18:35.322Z,99059.00
2024-04-04T12:21:10.480Z,99061.15
2024-04-04T12:23:53.021Z,99061.89
2024-04-04T12:26:21.965Z,99071.34
2024-04-04T12:28:57.799Z,99068.30
2024-04-04T12:31:32.237Z,99074.73
2024-04-04T12:34:06.038Z,99079.61
2024-04-04T12:36:40.911Z,99088.66
2024-04-04T12:39:15.551Z,99086.14
2024-04-04T12:41:49.406Z,99092.30
2024-04-04T12:44:22.895Z,99100.14
2024-04-04T12:46:55.911Z,99097.25
2024-04-04T12:49:29.414Z,99100.80
2024-04-04T12:52:02.683Z,99102.92
2024-04-04T12:54:35.441Z,99114.49
2024-04-04T12:57:08.559Z,99109.78
2024-04-04T12:59:40.870Z,99122.00
2024-04-04T13:02:13.267Z,99125.13
2024-04-04T13:04:46.504Z,99127.16
2024-04-04T13:07:19.426Z,99138.88
2024-04-04T13:09:52.250Z,99133.41
2024-04-04T13:12:25.309Z,99137.56
2024-04-04T13:14:58.156Z,99135.95
2024-04-04T13:17:30.556Z,99136.97
2024-04-04T13:20:05.073Z,99141.27
2024-04-04T13:22:39.835Z,99150.54
2024-04-04T13:25:13.712Z,99161.48
2024-04-04T13:27:48.127Z,99165.34
2024-04-04T13:30:21.488Z,99160.98
2024-04-04T13:32:55.797Z,99164.14
2024-04-04T13:35:31.719Z,99168.91
2024-04-04T13:38:06.318Z,99174.94
2024-04-04T13:40:39.468Z,99174.69
2024-04-04T13:43:13.312Z,99187.06
2024-04-04T13:45:47.075Z,99191.28
2024-04-04T13:48:21.405Z,99204.55
2024-04-04T13:51:00.342Z,99211.84
2024-04-04T13:53:36.144Z,99214.01
2024-04-04T13:56:10.729Z,99212.91
2024-04-04T13:58:44.492Z,99218.91
2024-04-04T14:01:17.707Z,99219.31
2024-04-04T14:03:52.009Z,99217.57
2024-04-04T14:06:26.290Z,99224.47
2024-04-04T14:09:01.104Z,99224.97
2024-04-04T14:11:33.842Z,99230.24
2024-04-04T14:14:09.345Z,99241.33
2024-04-04T14:16:45.153Z,99242.22
2024-04-04T14:19:22.138Z,99240.55
2024-04-04T14:21:55.819Z,99244.88
2024-04-04T14:24:29.004Z,99245.45
2024-04-04T14:27:02.707Z,99254.31
2024-04-04T14:29:36.081Z,99255.88
2024-04-04T14:32:08.649Z,99263.02
2024-04-04T14:34:42.704Z,99270.31
2024-04-04T14:37:15.511Z,99278.41
2024-04-04T14:39:47.856Z,99283.86
2024-04-04T14:42:21.308Z,99291.22
2024-04-04T14:44:53.395Z,99291.66
2024-04-04T14:47:26.251Z,99289.30
2024-04-04T14:49:58.714Z,99306.39
2024-04-04T14:52:34.303Z,99307.36
2024-04-04T14:55:07.208Z,99312.45
2024-04-04T14:57:40.780Z,99315.92
2024-04-04T15:00:15.245Z,99314.14
2024-04-04T15:02:49.273Z,99313.74
2024-04-04T15:05:21.422Z,99321.10
2024-04-04T15:07:53.287Z,99315.17
2024-04-04T15:10:29.081Z,99317.42
2024-04-04T15:13:02.144Z,99324.25
2024-04-04T15:15:36.173Z,99331.67
2024-04-04T15:18:09.995Z,99339.67
2024-04-04T15:20:43.053Z,99346.72
2024-04-04T15:23:16.445Z,99356.50
2024-04-04T15:25:50.461Z,99353.08
2024-04-04T15:28:25.551Z,99365.17
2024-04-04T15:30:58.519Z,99362.10
2024-04-04T15:33:31.222Z,99370.52
2024-04-04T15:36:06.113Z,99376.34
2024-04-04T15:38:40.150Z,99381.22
2024-04-04T15:41:34.859Z,99381.55
2024-04-04T15:44:10.320Z,99385.70
2024-04-04T15:46:42.976Z,99392.53
2024-04-04T15:49:16.960Z,99380.98
2024-04-04T15:51:53.122Z,99392.81
2024-04-04T15:54:27.246Z,99395.66
2024-04-04T15:57:02.108Z,99388.31
2024-04-04T15:59:36.986Z,99404.54
2024-04-04T16:02:11.088Z,99412.62
2024-04-04T16:04:43.741Z,99401.98
2024-04-04T16:07:16.713Z,99409.55
2024-04-04T16:09:50.261Z,99416.66
2024-04-04T16:12:23.648Z,99418.34
2024-04-04T16:14:56.791Z,99423.84
2024-04-04T16:17:31.650Z,99429.13
2024-04-04T16:20:07.592Z,99430.82
2024-04-04T16:22:41.209Z,99439.52
2024-04-04T16:25:14.682Z,99435.97
2024-04-04T16:27:49.979Z,99443.67
2024-04-04T16:30:25.737Z,99453.41
2024-04-04T16:32:59.953Z,99443.94
2024-04-04T16:35:33.139Z,99451.25
2024-04-04T16:38:15.193Z,99460.20
2024-04-04T16:40:48.745Z,99459.43
2024-04-04T16:43:24.008Z,99477.65
2024-04-04T16:45:57.517Z,99479.63
2024-04-04T16:48:32.140Z,99471.92
2024-04-04T16:51:05.226Z,99478.44
2024-04-04T16:53:38.953Z,99482.19
2024-04-04T16:56:13.354Z,99486.47
2024-04-04T16:58:47.116Z,99488.41
2024-04-04T17:01:23.423Z,99503.19
2024-04-04T17:03:56.465Z,99509.95
2024-04-04T17:06:30.302Z,99508.42
2024-04-04T17:09:05.263Z,99512.34
2024-04-04T17:11:39.454Z,99527.20
2024-04-04T17:14:13.583Z,99522.45
2024-04-04T17:16:48.260Z,99529.17
2024-04-04T17:19:22.791Z,99537.91
2024-04-04T17:21:56.197Z,99544.86
2024-04-04T17:24:29.143Z,99555.24
2024-04-04T17:27:01.556Z,99552.31
2024-04-04T17:29:36.071Z,99553.29
2024-04-04T17:32:09.524Z,99547.02
2024-04-04T17:34:41.826Z,99563.62
2024-04-04T17:37:14.884Z,99564.17
2024-04-04T17:39:49.087Z,99566.58
2024-04-04T17:42:21.961Z,99574.36
2024-04-04T17:44:55.161Z,99578.72
2024-04-04T17:47:28.796Z,99581.56
2024-04-04T17:50:01.816Z,99575.52
2024-04-04T17:52:39.148Z,99583.30
2024-04-04T17:55:09.844Z,99582.56
2024-04-04T17:58:02.007Z,99593.28
2024-04-04T18:00:39.966Z,99600.92
2024-04-04T18:03:14.949Z,99600.09
2024-04-04T18:05:48.647Z,99600.16
2024-04-04T18:08:21.711Z,99592.31
2024-04-04T18:10:54.366Z,99595.91
2024-04-04T18:13:26.854Z,99603.62
2024-04-04T18:15:59.447Z,99603.66
2024-04-04T18:18:33.037Z,99612.05
2024-04-04T18:21:06.505Z,99602.69
2024-04-04T18:23:40.709Z,99612.22
2024-04-04T18:26:13.243Z,99601.82
2024-04-04T18:31:37.560Z,99605.65
2024-04-04T18:34:10.844Z,99613.48
2024-04-04T18:36:44.125Z,99622.95
2024-04-04T18:39:17.383Z,99622.79
2024-04-04T18:41:51.716Z,99623.78
2024-04-04T18:44:25.848Z,99632.39
2024-04-04T18:46:59.209Z,99631.53
2024-04-04T18:49:31.670Z,99641.96
2024-04-04T18:52:05.244Z,99627.41
2024-04-04T18:54:56.232Z,99645.67
2024-04-04T18:57:29.088Z,99646.47
2024-04-04T19:00:01.824Z,99648.30
2024-04-04T19:02:38.912Z,99642.47
2024-04-04T19:05:12.920Z,99649.34
2024-04-04T19:07:47.290Z,99655.36
2024-04-04T19:10:20.749Z,99646.76
2024-04-04T19:12:53.755Z,99655.88
2024-04-04T19:15:27.292Z,99655.11
2024-04-04T19:18:00.319Z,99657.12
2024-04-04T19:20:33.675Z,99657.12
2024-04-04T19:23:07.243Z,99655.48
2024-04-04T19:25:39.646Z,99662.39
2024-04-04T19:28:13.928Z,99673.41
2024-04-04T19:30:59.784Z,99659.86
2024-04-04T19:33:34.776Z,99661.62
2024-04-04T19:36:09.897Z,99680.44
2024-04-04T19:38:42.959Z,99664.21
2024-04-04T19:41:15.638Z,99678.09
2024-04-04T19:43:48.171Z,99664.42
2024-04-04T19:46:21.078Z,99675.64
2024-04-04T19:48:53.868Z,99667.91
2024-04-04T19:51:26.146Z,99666.95
2024-04-04T19:53:58.560Z,99666.00
2024-04-04T19:56:32.346Z,99662.61
2024-04-04T19:59:07.044Z,99669.48
2024-04-04T20:01:40.230Z,99676.42
2024-04-04T20:04:14.109Z,99678.06
2024-04-04T20:06:46.425Z,99685.67
2024-04-04T20:09:18.948Z,99690.11
2024-04-04T20:11:51.966Z,99686.78
2024-04-04T20:14:24.747Z,99690.17
2024-04-04T20:16:58.178Z,99698.72
2024-04-04T20:19:30.554Z,99698.69
2024-04-04T20:22:04.732Z,99707.02
2024-04-04T20:24:37.388Z,99712.56
2024-04-04T20:27:09.908Z,99705.83
2024-04-04T20:29:42.601Z,99725.83
2024-04-04T20:32:16.362Z,99716.59
2024-04-04T20:34:48.773Z,99733.07
2024-04-04T20:37:21.134Z,99722.05
2024-04-04T20:39:55.115Z,99729.05
2024-04-04T20:42:27.466Z,99731.53
2024-04-04T20:45:00.216Z,99744.64
2024-04-04T20:47:34.682Z,99742.00
2024-04-04T20:50:07.449Z,99742.18
2024-04-04T20:52:41.959Z,99742.91
2024-04-04T20:55:13.455Z,99748.14
2024-04-04T20:57:45.284Z,99768.59
2024-04-04T21:00:17.968Z,99761.12
2024-04-04T21:02:50.804Z,99762.05
2024-04-04T21:05:25.514Z,99764.81
2024-04-04T21:07:58.076Z,99764.96
2024-04-04T21:10:31.053Z,99765.92
2024-04-04T21:13:03.824Z,99773.72
2024-04-04T21:15:36.914Z,99777.20
2024-04-04T21:18:11.284Z,99782.30
2024-04-04T21:20:44.660Z,99782.38
2024-04-04T21:23:17.860Z,99782.30
2024-04-04T21:25:51.346Z,99783.19
2024-04-04T21:28:23.812Z,99786.70
2024-04-04T21:31:03.007Z,99792.81
2024-04-04T21:33:37.494Z,99798.06
2024-04-04T21:36:12.230Z,99797.23
2024-04-04T21:38:45.830Z,99804.16
2024-04-04T21:41:19.819Z,99802.45
2024-04-04T21:43:52.959Z,99811.92
2024-04-04T21:46:25.351Z,99810.11
2024-04-04T21:48:57.817Z,99813.78
2024-04-04T21:51:30.105Z,99812.89
2024-04-04T21:54:03.137Z,99817.33
2024-04-04T21:56:35.414Z,99818.27
2024-04-04T21:59:09.164Z,99814.80
2024-04-04T22:01:41.395Z,99838.94
2024-04-04T22:04:14.804Z,99827.56
2024-04-04T22:06:48.729Z,99826.16
2024-04-04T22:09:20.974Z,99842.57
2024-04-04T22:11:53.373Z,99835.83
2024-04-04T22:14:26.199Z,99850.41
2024-04-04T22:16:59.429Z,99840.99
2024-04-04T22:19:32.134Z,99832.56
2024-04-04T22:22:04.803Z,99840.20
2024-04-04T22:24:37.154Z,99858.34
2024-04-04T22:27:12.318Z,99861.84
2024-04-04T22:29:47.472Z,99869.39
2024-04-04T22:32:19.047Z,99861.69
2024-04-04T22:34:52.020Z,99864.19
2024-04-04T22:37:24.979Z,99856.47
2024-04-04T22:39:57.560Z,99864.44
2024-04-04T22:42:29.738Z,99862.84
2024-04-04T22:45:01.912Z,99867.10
2024-04-04T22:47:34.381Z,99862.97
2024-04-04T22:50:10.079Z,99852.67
2024-04-04T22:52:43.028Z,99864.80
2024-04-04T22:55:16.260Z,99873.30
2024-04-04T22:57:53.527Z,99874.11
2024-04-04T23:00:26.773Z,99868.98
2024-04-04T23:02:59.611Z,99874.85
2024-04-04T23:05:31.994Z,99879.27
2024-04-04T23:08:04.536Z,99892.16
2024-04-04T23:10:40.431Z,99895.70
2024-04-04T23:13:13.437Z,99895.69
2024-04-04T23:15:46.438Z,99891.46
2024-04-04T23:18:18.951Z,99894.13
2024-04-04T23:20:52.860Z,99884.68
2024-04-04T23:23:25.864Z,99891.46
2024-04-04T23:25:59.100Z,99888.10
2024-04-04T23:28:31.707Z,99911.42
2024-04-04T23:31:03.907Z,99901.09
2024-04-04T23:33:36.522Z,99917.48
2024-04-04T23:36:09.133Z,99910.64
2024-04-04T23:38:41.765Z,99919.27
2024-04-04T23:41:13.874Z,99919.21
2024-04-04T23:43:46.398Z,99916.63
2024-04-04T23:46:18.668Z,99917.55
2024-04-04T23:48:50.790Z,99917.51
2024-04-04T23:51:23.326Z,99925.30
2024-04-04T23:53:55.950Z,99921.00
2024-04-04T23:56:30.643Z,99926.19
2024-04-04T23:59:03.436Z,99931.36
